Time;durP1;ratioP1;P1;durP2;ratioP2;P2;SDS_P1;SDS_P2;PMS_P1;PMS_P2;Temp;Humidity;BMP_temperature;BMP_pressure;BME280_temperature;BME280_humidity;BME280_pressure;Samples;Min_cycle;Max_cycle;Signal;HPM_P1;HPM_P2
2022/09/10 00:00:54;;;;;;;;;;;;;;;12.63;100.00;100423.31;4975078;28;20407;-82
2022/09/10 00:03:21;;;;;;;;;;;;;;;12.57;100.00;100418.22;5044034;28;19964;-82
2022/09/10 00:05:48;;;;;;;;;;;;;;;12.54;100.00;100425.41;5011581;28;19934;-82
2022/09/10 00:08:14;;;;;;;;;;;;;;;12.59;100.00;100426.13;5013136;28;19922;-83
2022/09/10 00:10:45;;;;;;;;;;;;;;;12.47;100.00;100434.47;4982538;28;19988;-81
2022/09/10 00:13:12;;;;;;;;;;;;;;;12.49;100.00;100433.50;4990862;28;20042;-82
2022/09/10 00:15:39;;;;;;;;;;;;;;;12.54;100.00;100433.38;4963715;28;19922;-80
2022/09/10 00:18:05;;;;;;;;;;;;;;;12.47;100.00;100431.81;4988249;28;19965;-81
2022/09/10 00:20:32;;;;;;;;;;;;;;;12.28;100.00;100427.09;4996359;28;20011;-81
2022/09/10 00:23:01;;;;;;;;;;;;;;;12.19;100.00;100427.41;5009054;28;19921;-82
2022/09/10 00:25:28;;;;;;;;;;;;;;;12.05;100.00;100424.28;4987533;28;19925;-82
2022/09/10 00:27:55;;;;;;;;;;;;;;;12.09;100.00;100429.44;5010896;28;19921;-82
2022/09/10 00:30:21;;;;;;;;;;;;;;;11.96;100.00;100437.81;4990129;28;19922;-81
2022/09/10 00:32:51;;;;;;;;;;;;;;;11.93;100.00;100433.44;4987371;28;19925;-81
2022/09/10 00:35:21;;;;;;;;;;;;;;;12.01;100.00;100428.78;5016589;28;19942;-80
2022/09/10 00:37:47;;;;;;;;;;;;;;;12.28;100.00;100432.41;5015333;28;19929;-82
2022/09/10 00:40:14;;;;;;;;;;;;;;;12.27;100.00;100429.78;5038369;28;19922;-81
2022/09/10 00:42:42;;;;;;;;;;;;;;;12.04;100.00;100426.06;5008626;28;19922;-82
2022/09/10 00:45:16;;;;;;;;;;;;;;;11.88;100.00;100427.44;5004853;28;19922;-82
2022/09/10 00:47:45;;;;;;;;;;;;;;;11.80;100.00;100429.44;5005674;28;19945;-83
2022/09/10 00:50:15;;;;;;;;;;;;;;;11.79;100.00;100428.53;5004486;28;19921;-81
2022/09/10 00:52:42;;;;;;;;;;;;;;;11.73;100.00;100434.00;4993864;28;19928;-81
2022/09/10 00:55:09;;;;;;;;;;;;;;;11.76;100.00;100423.31;5009318;28;19944;-81
2022/09/10 00:57:35;;;;;;;;;;;;;;;11.99;100.00;100435.91;5001826;28;19922;-81
2022/09/10 01:00:04;;;;;;;;;;;;;;;11.81;100.00;100428.53;5025676;28;19922;-80
2022/09/10 01:02:30;;;;;;;;;;;;;;;11.78;100.00;100431.25;5009241;28;19929;-82
2022/09/10 01:04:57;;;;;;;;;;;;;;;11.79;100.00;100431.19;5006372;28;19929;-82
2022/09/10 01:07:24;;;;;;;;;;;;;;;11.70;100.00;100431.47;4991598;28;19926;-81
2022/09/10 01:09:51;;;;;;;;;;;;;;;11.71;100.00;100425.25;5025192;28;20338;-82
2022/09/10 01:12:37;;;;;;;;;;;;;;;11.63;100.00;100421.97;4982572;28;20409;-81
2022/09/10 01:15:06;;;;;;;;;;;;;;;11.60;100.00;100427.31;5014369;28;19976;-81
2022/09/10 01:17:56;;;;;;;;;;;;;;;11.57;100.00;100422.13;5024167;28;19941;-82
2022/09/10 01:20:23;;;;;;;;;;;;;;;11.67;100.00;100422.72;4991971;28;19925;-81
2022/09/10 01:23:10;;;;;;;;;;;;;;;11.44;100.00;100426.03;4989536;28;19933;-81
2022/09/10 01:25:45;;;;;;;;;;;;;;;11.34;100.00;100413.94;5023054;28;20008;-80
2022/09/10 01:28:14;;;;;;;;;;;;;;;11.43;100.00;100413.69;5024604;28;19921;-81
2022/09/10 01:30:41;;;;;;;;;;;;;;;11.52;100.00;100413.47;5006542;28;19929;-82
2022/09/10 01:33:11;;;;;;;;;;;;;;;11.36;100.00;100417.44;5006401;28;20016;-81
2022/09/10 01:35:50;;;;;;;;;;;;;;;11.27;100.00;100419.44;5038632;28;19922;-83
2022/09/10 01:38:19;;;;;;;;;;;;;;;11.15;100.00;100418.88;5007398;28;19964;-80
2022/09/10 01:40:46;;;;;;;;;;;;;;;11.14;100.00;100415.38;5008604;28;19925;-80
2022/09/10 01:43:13;;;;;;;;;;;;;;;11.18;100.00;100414.41;5015256;28;20303;-80
2022/09/10 01:46:00;;;;;;;;;;;;;;;11.22;100.00;100417.81;4990618;28;19925;-80
2022/09/10 01:48:42;;;;;;;;;;;;;;;11.25;100.00;100421.22;4983062;28;19964;-80
2022/09/10 01:51:13;;;;;;;;;;;;;;;11.31;100.00;100421.97;5020234;28;19921;-80
2022/09/10 01:53:57;;;;;;;;;;;;;;;11.24;100.00;100416.84;5002860;28;19928;-82
2022/09/10 01:56:27;;;;;;;;;;;;;;;11.30;100.00;100412.31;5019786;28;19929;-83
2022/09/10 01:58:57;;;;;;;;;;;;;;;11.22;100.00;100412.53;5036443;28;20264;-80
2022/09/10 02:01:23;;;;;;;;;;;;;;;11.12;100.00;100411.91;5006597;28;19921;-81
2022/09/10 02:03:51;;;;;;;;;;;;;;;11.16;100.00;100410.91;5020832;28;20399;-80
2022/09/10 02:06:18;;;;;;;;;;;;;;;11.12;100.00;100409.25;5006014;28;19972;-81
2022/09/10 02:08:46;;;;;;;;;;;;;;;11.02;100.00;100407.78;5013175;28;19922;-80
2022/09/10 02:11:13;;;;;;;;;;;;;;;10.95;100.00;100408.84;5006128;28;19922;-82
2022/09/10 02:13:41;;;;;;;;;;;;;;;10.90;100.00;100408.94;5037109;28;19921;-80
2022/09/10 02:16:11;;;;;;;;;;;;;;;10.97;100.00;100410.53;4995104;28;19929;-80
2022/09/10 02:18:38;;;;;;;;;;;;;;;10.94;100.00;100409.75;4982619;28;20027;-80
2022/09/10 02:21:05;;;;;;;;;;;;;;;11.00;100.00;100409.56;5002992;28;20071;-81
2022/09/10 02:23:39;;;;;;;;;;;;;;;10.99;100.00;100407.84;5008851;28;19926;-80
2022/09/10 02:26:06;;;;;;;;;;;;;;;11.02;100.00;100409.56;5023319;28;19928;-80
2022/09/10 02:28:32;;;;;;;;;;;;;;;10.85;100.00;100418.78;5007964;28;19922;-80
2022/09/10 02:31:00;;;;;;;;;;;;;;;10.75;100.00;100424.31;5002213;28;19921;-80
2022/09/10 02:33:27;;;;;;;;;;;;;;;10.79;100.00;100404.84;5081318;22;20215;-82
2022/09/10 02:35:54;;;;;;;;;;;;;;;10.77;100.00;100411.97;4955031;28;19926;-83
2022/09/10 02:38:20;;;;;;;;;;;;;;;10.81;100.00;100429.47;4990529;28;19922;-83
2022/09/10 02:40:50;;;;;;;;;;;;;;;10.73;100.00;100432.28;4972834;28;19926;-83
2022/09/10 02:43:16;;;;;;;;;;;;;;;10.68;100.00;100429.78;4949580;29;20398;-83
2022/09/10 02:45:43;;;;;;;;;;;;;;;10.67;100.00;100435.06;4944177;28;19927;-83
2022/09/10 02:48:10;;;;;;;;;;;;;;;10.75;100.00;100435.75;4932728;29;20046;-83
2022/09/10 02:50:36;;;;;;;;;;;;;;;10.68;100.00;100428.91;4937486;29;19922;-84
2022/09/10 02:53:03;;;;;;;;;;;;;;;10.66;100.00;100444.78;4951011;28;19923;-83
2022/09/10 02:55:30;;;;;;;;;;;;;;;10.77;100.00;100438.38;4921158;29;20431;-84
2022/09/10 02:57:57;;;;;;;;;;;;;;;10.66;100.00;100442.13;4952872;28;19929;-83
2022/09/10 03:00:23;;;;;;;;;;;;;;;10.65;100.00;100434.25;4940746;29;19973;-84
2022/09/10 03:02:50;;;;;;;;;;;;;;;10.59;100.00;100434.38;4937343;28;19922;-83
2022/09/10 03:05:16;;;;;;;;;;;;;;;10.50;100.00;100435.47;4938540;29;19970;-83
2022/09/10 03:07:43;;;;;;;;;;;;;;;10.46;100.00;100438.25;4927948;29;19981;-83
2022/09/10 03:10:10;;;;;;;;;;;;;;;10.46;100.00;100438.25;4936931;29;20005;-85
2022/09/10 03:12:38;;;;;;;;;;;;;;;10.42;100.00;100429.50;4938659;29;19922;-84
2022/09/10 03:15:05;;;;;;;;;;;;;;;10.39;100.00;100432.22;4937086;28;19922;-85
2022/09/10 03:17:31;;;;;;;;;;;;;;;10.36;100.00;100433.19;4924058;29;19922;-84
2022/09/10 03:19:58;;;;;;;;;;;;;;;10.36;100.00;100432.31;4944008;29;19922;-83
2022/09/10 03:22:25;;;;;;;;;;;;;;;10.34;100.00;100426.19;4924179;29;19926;-84
2022/09/10 03:24:52;;;;;;;;;;;;;;;10.33;100.00;100427.09;4942120;29;19922;-83
2022/09/10 03:27:19;;;;;;;;;;;;;;;10.37;100.00;100431.41;4942084;29;19961;-86
2022/09/10 03:29:46;;;;;;;;;;;;;;;10.37;100.00;100423.47;4942864;29;19945;-83
2022/09/10 03:32:12;;;;;;;;;;;;;;;10.35;100.00;100420.88;4922677;29;19922;-86
2022/09/10 03:34:39;;;;;;;;;;;;;;;10.35;100.00;100420.03;4926304;29;20261;-83
2022/09/10 03:37:05;;;;;;;;;;;;;;;10.37;100.00;100423.47;4953107;28;20379;-83
2022/09/10 03:39:32;;;;;;;;;;;;;;;10.32;100.00;100428.84;4943011;29;19922;-83
2022/09/10 03:41:59;;;;;;;;;;;;;;;10.27;100.00;100422.84;4957961;28;19933;-86
2022/09/10 03:44:25;;;;;;;;;;;;;;;10.27;100.00;100425.47;4961029;29;20298;-84
2022/09/10 03:46:52;;;;;;;;;;;;;;;10.26;100.00;100422.88;4954594;28;19922;-87
2022/09/10 03:49:18;;;;;;;;;;;;;;;10.26;100.00;100422.88;4945145;29;19929;-83
2022/09/10 03:51:47;;;;;;;;;;;;;;;10.24;100.00;100417.59;4940353;29;19926;-85
2022/09/10 03:54:13;;;;;;;;;;;;;;;10.27;100.00;100419.31;4956089;29;19930;-85
2022/09/10 03:56:40;;;;;;;;;;;;;;;10.22;100.00;100407.97;4939722;29;19930;-84
2022/09/10 03:59:07;;;;;;;;;;;;;;;10.21;100.00;100416.78;4939898;29;20407;-83
2022/09/10 04:01:33;;;;;;;;;;;;;;;10.27;100.00;100416.69;4939574;29;19961;-83
2022/09/10 04:04:01;;;;;;;;;;;;;;;10.24;100.00;100416.75;4941436;29;19923;-85
2022/09/10 04:06:31;;;;;;;;;;;;;;;10.24;100.00;100420.25;4955429;28;19977;-84
2022/09/10 04:08:58;;;;;;;;;;;;;;;10.28;100.00;100415.78;4954360;29;20591;-83
2022/09/10 04:11:26;;;;;;;;;;;;;;;10.30;100.00;100419.25;4954249;28;20353;-83
2022/09/10 04:13:53;;;;;;;;;;;;;;;10.31;100.00;100413.06;4955350;28;19930;-83
2022/09/10 04:16:21;;;;;;;;;;;;;;;10.27;100.00;100409.63;4951959;28;19929;-83
2022/09/10 04:18:48;;;;;;;;;;;;;;;10.28;100.00;100421.94;4911807;28;19989;-83
2022/09/10 04:21:14;;;;;;;;;;;;;;;10.19;100.00;100422.09;4935186;29;20299;-84
2022/09/10 04:23:41;;;;;;;;;;;;;;;10.05;100.00;100419.75;4976604;28;20343;-84
2022/09/10 04:26:16;;;;;;;;;;;;;;;10.22;100.00;100418.53;4958620;28;19925;-83
2022/09/10 04:28:43;;;;;;;;;;;;;;;10.13;100.00;100424.88;4960186;28;19929;-84
2022/09/10 04:31:09;;;;;;;;;;;;;;;10.09;100.00;100424.09;4940925;28;19929;-84
2022/09/10 04:33:36;;;;;;;;;;;;;;;10.05;100.00;100422.41;4957082;28;19922;-83
2022/09/10 04:36:03;;;;;;;;;;;;;;;10.02;100.00;100422.47;4940612;28;19961;-83
2022/09/10 04:38:31;;;;;;;;;;;;;;;9.89;100.00;100434.19;4958348;28;19954;-85
2022/09/10 04:40:59;;;;;;;;;;;;;;;9.84;100.00;100428.16;4957206;28;19927;-84
2022/09/10 04:43:26;;;;;;;;;;;;;;;9.83;100.00;100432.53;4957762;28;20272;-84
2022/09/10 04:45:54;;;;;;;;;;;;;;;9.85;100.00;100435.19;4940639;28;19952;-84
2022/09/10 04:48:21;;;;;;;;;;;;;;;9.87;100.00;100438.66;4904834;29;19927;-84
2022/09/10 04:50:48;;;;;;;;;;;;;;;9.91;100.00;100442.06;4950217;28;19926;-84
2022/09/10 04:53:35;;;;;;;;;;;;;;;9.88;100.00;100432.47;4935941;29;19934;-83
2022/09/10 04:56:01;;;;;;;;;;;;;;;9.92;100.00;100423.59;4934313;29;19927;-85
2022/09/10 04:58:28;;;;;;;;;;;;;;;9.95;100.00;100428.78;4961801;28;19970;-84
2022/09/10 05:00:55;;;;;;;;;;;;;;;9.98;100.00;100434.00;4937745;28;19933;-84
2022/09/10 05:03:22;;;;;;;;;;;;;;;10.01;100.00;100426.03;4949041;28;20453;-84
2022/09/10 05:05:49;;;;;;;;;;;;;;;10.05;100.00;100429.47;4939578;28;19981;-84
2022/09/10 05:08:16;;;;;;;;;;;;;;;10.03;100.00;100421.56;4957831;28;19965;-84
2022/09/10 05:10:44;;;;;;;;;;;;;;;10.05;100.00;100425.03;4954832;28;20316;-84
2022/09/10 05:13:10;;;;;;;;;;;;;;;10.10;100.00;100432.88;4934642;28;19922;-84
2022/09/10 05:15:40;;;;;;;;;;;;;;;10.05;100.00;100430.31;4955910;28;19925;-84
2022/09/10 05:18:06;;;;;;;;;;;;;;;10.10;100.00;100427.59;4956563;28;19974;-84
2022/09/10 05:20:34;;;;;;;;;;;;;;;10.17;100.00;100434.44;4928426;28;19926;-85
2022/09/10 05:23:01;;;;;;;;;;;;;;;10.25;100.00;100429.91;4971120;28;19937;-84
2022/09/10 05:25:27;;;;;;;;;;;;;;;10.29;100.00;100428.06;4923754;29;20234;-84
2022/09/10 05:27:54;;;;;;;;;;;;;;;10.27;100.00;100430.75;4954577;28;19922;-84
2022/09/10 05:30:21;;;;;;;;;;;;;;;10.26;100.00;100430.78;4938512;29;19933;-84
2022/09/10 05:32:47;;;;;;;;;;;;;;;10.23;100.00;100431.72;4937246;29;19922;-85
2022/09/10 05:35:14;;;;;;;;;;;;;;;10.26;100.00;100429.03;4922981;29;20293;-83
2022/09/10 05:37:40;;;;;;;;;;;;;;;10.28;100.00;100426.34;4936789;29;19973;-84
2022/09/10 05:40:08;;;;;;;;;;;;;;;10.33;100.00;100422.66;4939642;28;19922;-84
2022/09/10 05:42:34;;;;;;;;;;;;;;;10.43;100.00;100433.91;4912368;29;20392;-85
2022/09/10 05:45:01;;;;;;;;;;;;;;;10.49;100.00;100427.59;4950538;29;19923;-84
2022/09/10 05:47:28;;;;;;;;;;;;;;;10.57;100.00;100426.50;4934924;29;20595;-84
2022/09/10 05:49:55;;;;;;;;;;;;;;;10.60;100.00;100431.75;4938264;29;19930;-84
2022/09/10 05:52:23;;;;;;;;;;;;;;;10.69;100.00;100431.50;4952994;28;19923;-85
2022/09/10 05:54:49;;;;;;;;;;;;;;;10.69;100.00;100423.59;4938021;28;19929;-85
2022/09/10 05:57:16;;;;;;;;;;;;;;;10.71;100.00;100428.81;4936577;29;19926;-85
2022/09/10 05:59:43;;;;;;;;;;;;;;;10.76;100.00;100440.13;4937850;29;19930;-84
2022/09/10 06:02:14;;;;;;;;;;;;;;;10.81;100.00;100438.25;4937992;29;19929;-83
2022/09/10 06:04:41;;;;;;;;;;;;;;;10.85;100.00;100436.41;4931005;28;19922;-84
2022/09/10 06:07:08;;;;;;;;;;;;;;;10.89;100.00;100438.94;4924437;28;20391;-84
2022/09/10 06:09:34;;;;;;;;;;;;;;;10.99;100.00;100442.19;4919114;29;19958;-85
2022/09/10 06:12:01;;;;;;;;;;;;;;;11.03;100.00;100429.78;4938481;29;19930;-86
2022/09/10 06:14:28;;;;;;;;;;;;;;;11.08;100.00;100427.88;4912740;29;19922;-85
2022/09/10 06:16:54;;;;;;;;;;;;;;;11.14;100.00;100431.22;4932562;28;19923;-83
2022/09/10 06:19:21;;;;;;;;;;;;;;;11.25;100.00;100441.53;4950534;28;19970;-84
